Portada
METAR-TAF:

METAR-TAF

Aeroports :

Vestmannaeyjar, Islàndia

latitud: 63-24N, longitud: 020-17W, altitud: 118 m

Observació

L'informe es va fer fa 11 hores i 58 minuts, a les 18:00 UTC
Vent 15 kt del Sud/Sud-Oest
Temperatura 8°C
Humitat 93%
Pressió 1022 hPa
Visibilitat: 5000 m
Cel cobert a una alçada de 500 ft
plugim, boirina

METAR: BIVM 201800Z 20015KT 5000 DZ BR OVC005 08/07 Q1022

Hora: 05:58 (05:58 UTC)

Pronòstic

L'informe es va fer fa 13 hores i 47 minuts, a les 16:11 UTC
Pronòstic vàlid del 20 a les 17 UTC al 21 a les 02 UTC
Vent 17 kt del Sud/Sud-Oest
Visibilitat: 5000 m
Cel ennuvolat a una alçada de 500 ft
Cel cobert a una alçada de 700 ft
plugim, pluja
Temporalment
l' 20 a les 17 UTC al 21 a les 02 UTC
Visibilitat: 0800 m
a una alçada de 200 ft
plugim, boira

TAF: BIVM 201611Z 2017/2102 20017KT 5000 -DZRA BKN005 OVC007 TEMPO 2017/2102 0800 DZ FG VV002

Observacions i pronòstics meteorològics de més de 4000 aeroports (METAR i TAF).

Les estacions disponibles són els punts grocs i vermells al mapa.

Posi el ratolí al punt desitjat per veure el nom de l'estació.

Feu clic per veure les observacions i els pronòstics meteorològics.

Per canviar el mapa: feu clic els botons verds amb una creu de color negre per apropar; al botó verd amb un guió per allunyar la imatge; o en les fletxes verdes per a mapes adjacents.


METAR-TAF: